createdAt,value
2016-09-07T00:00:24.691Z,2.47
2016-09-07T00:01:24.689Z,2.48
2016-09-07T00:02:24.680Z,2.4
2016-09-07T00:03:24.661Z,2.38
2016-09-07T00:04:24.643Z,2.29
2016-09-07T00:05:24.985Z,2.29
2016-09-07T00:06:24.611Z,2.27
2016-09-07T00:07:24.608Z,2.27
2016-09-07T00:08:24.588Z,2.51
2016-09-07T00:09:24.893Z,2.51
2016-09-07T00:10:24.571Z,2.62
2016-09-07T00:11:24.545Z,2.62
2016-09-07T00:12:24.522Z,2.77
2016-09-07T00:13:24.535Z,2.95
2016-09-07T00:14:24.496Z,3.3
2016-09-07T00:15:24.479Z,3.56
2016-09-07T00:16:24.511Z,3.77
2016-09-07T00:17:24.485Z,3.7
2016-09-07T00:18:24.479Z,3.54
2016-09-07T00:19:24.456Z,3.35
2016-09-07T00:20:24.433Z,3.26
2016-09-07T00:21:24.415Z,3.3
2016-09-07T00:22:24.398Z,3.26
2016-09-07T00:23:24.395Z,3.28
2016-09-07T00:24:24.389Z,3.17
2016-09-07T00:25:24.372Z,3.2
2016-09-07T00:26:24.363Z,3.13
2016-09-07T00:27:24.362Z,3.05
2016-09-07T00:28:24.338Z,2.98
2016-09-07T00:29:24.308Z,2.99
2016-09-07T00:30:24.314Z,2.94
2016-09-07T00:31:24.310Z,2.99
2016-09-07T00:32:24.297Z,2.97
2016-09-07T00:33:24.262Z,2.9
2016-09-07T00:34:24.259Z,2.9
2016-09-07T00:35:24.261Z,2.86
2016-09-07T00:36:24.241Z,3.62
2016-09-07T00:37:24.222Z,4.11
2016-09-07T00:38:24.204Z,3.93
2016-09-07T00:39:24.220Z,3.9
2016-09-07T00:40:24.196Z,3.81
2016-09-07T00:41:24.174Z,3.72
2016-09-07T00:42:24.173Z,3.53
2016-09-07T00:43:24.187Z,3.53
2016-09-07T00:44:24.149Z,3.41
2016-09-07T00:45:24.149Z,3.35
2016-09-07T00:46:24.127Z,3.33
2016-09-07T00:47:24.107Z,4.38
2016-09-07T00:48:24.106Z,5.11
2016-09-07T00:49:24.077Z,5.42
2016-09-07T00:50:24.083Z,5.19
2016-09-07T00:51:24.090Z,4.83
2016-09-07T00:52:24.033Z,4.42
2016-09-07T00:53:24.038Z,4.64
2016-09-07T00:54:24.043Z,4.44
2016-09-07T00:55:24.034Z,4.25
2016-09-07T00:56:24.008Z,4.13
2016-09-07T00:57:23.990Z,3.96
2016-09-07T00:58:23.987Z,3.95
2016-09-07T00:59:23.975Z,3.92
2016-09-07T01:00:23.959Z,4.02
2016-09-07T01:01:23.976Z,4.54
2016-09-07T01:02:23.945Z,4.68
2016-09-07T01:03:23.933Z,4.83
2016-09-07T01:04:23.917Z,4.94
2016-09-07T01:05:23.898Z,4.9
2016-09-07T01:06:23.899Z,4.99
2016-09-07T01:07:23.901Z,4.99
2016-09-07T01:08:23.866Z,4.94
2016-09-07T01:09:23.883Z,5.06
2016-09-07T01:10:23.854Z,5.63
2016-09-07T01:11:23.847Z,5.58
2016-09-07T01:12:24.143Z,5.75
2016-09-07T01:13:23.798Z,5.98
2016-09-07T01:14:23.823Z,6.78
2016-09-07T01:15:23.800Z,6.71
2016-09-07T01:16:23.796Z,6.89
2016-09-07T01:17:23.769Z,6.99
2016-09-07T01:18:23.759Z,6.58
2016-09-07T01:19:23.745Z,6.33
2016-09-07T01:20:23.751Z,5.99
2016-09-07T01:21:23.726Z,5.96
2016-09-07T01:22:23.724Z,5.87
2016-09-07T01:23:23.713Z,6.35
2016-09-07T01:24:23.684Z,5.81
2016-09-07T01:25:23.694Z,5.66
2016-09-07T01:26:23.677Z,5.99
2016-09-07T01:27:23.675Z,6.35
2016-09-07T01:28:23.654Z,6.51
2016-09-07T01:29:23.652Z,6.51
2016-09-07T01:30:23.637Z,6.21
2016-09-07T01:31:23.924Z,6.19
2016-09-07T01:32:23.615Z,6.36
2016-09-07T01:33:23.608Z,6.33
2016-09-07T01:34:23.573Z,6.42
2016-09-07T01:35:23.574Z,6.63
2016-09-07T01:36:23.581Z,6.87
2016-09-07T01:37:23.576Z,7.21
2016-09-07T01:38:23.540Z,7.12
2016-09-07T01:39:23.542Z,7.18
2016-09-07T01:40:23.548Z,7.5
2016-09-07T01:41:23.542Z,7.48
2016-09-07T01:42:23.503Z,7.27
2016-09-07T01:43:23.480Z,7.16
2016-09-07T01:44:23.493Z,7.45
2016-09-07T01:45:23.474Z,7.58
2016-09-07T01:46:23.452Z,7.51
2016-09-07T01:47:23.467Z,7.69
2016-09-07T01:48:23.448Z,7.6
2016-09-07T01:49:23.477Z,7.74
2016-09-07T01:50:23.448Z,7.7
2016-09-07T01:51:23.411Z,7.45
2016-09-07T01:52:23.418Z,7.51
2016-09-07T01:53:23.404Z,7.41
2016-09-07T01:54:23.394Z,7.39
2016-09-07T01:55:23.376Z,7.62
2016-09-07T01:56:23.396Z,7.6
2016-09-07T01:57:23.360Z,7.57
2016-09-07T01:58:23.371Z,7.44
2016-09-07T01:59:23.351Z,7.27
2016-09-07T02:00:23.339Z,7.32
2016-09-07T02:01:23.335Z,7.71
2016-09-07T02:02:23.329Z,7.84
2016-09-07T02:03:23.314Z,7.84
2016-09-07T02:04:23.301Z,7.85
2016-09-07T02:05:23.298Z,7.62
2016-09-07T02:06:23.267Z,7.63
2016-09-07T02:07:23.271Z,7.54
2016-09-07T02:08:23.242Z,7.57
2016-09-07T02:09:23.243Z,7.6
2016-09-07T02:10:23.238Z,7.48
2016-09-07T02:11:23.247Z,7.62
2016-09-07T02:12:23.224Z,7.91
2016-09-07T02:13:23.201Z,7.85
2016-09-07T02:14:23.210Z,7.94
2016-09-07T02:15:23.198Z,7.94
2016-09-07T02:16:23.194Z,8.17
2016-09-07T02:17:23.177Z,8.21
2016-09-07T02:18:23.183Z,8.25
2016-09-07T02:19:23.138Z,8.4
2016-09-07T02:20:23.139Z,8.43
2016-09-07T02:21:23.120Z,8.34
2016-09-07T02:22:23.134Z,8.29
2016-09-07T02:23:23.110Z,8.28
2016-09-07T02:24:23.106Z,8.43
2016-09-07T02:25:23.103Z,8.4
2016-09-07T02:26:23.097Z,8.28
2016-09-07T02:27:23.083Z,8.34
2016-09-07T02:28:23.070Z,8.13
2016-09-07T02:29:23.071Z,8.13
2016-09-07T02:30:23.045Z,8.17
2016-09-07T02:31:23.047Z,8.04
2016-09-07T02:32:23.023Z,8.03
2016-09-07T02:33:23.025Z,8.32
2016-09-07T02:34:23.018Z,8.7
2016-09-07T02:35:23.037Z,8.63
2016-09-07T02:36:22.997Z,8.68
2016-09-07T02:37:22.992Z,8.63
2016-09-07T02:38:22.983Z,8.71
2016-09-07T02:39:22.974Z,9
2016-09-07T02:40:22.970Z,8.97
2016-09-07T02:41:22.952Z,8.82
2016-09-07T02:42:22.959Z,8.68
2016-09-07T02:43:22.951Z,8.68
2016-09-07T02:44:22.921Z,8.73
2016-09-07T02:45:22.934Z,8.86
2016-09-07T02:46:22.902Z,8.79
2016-09-07T02:47:22.917Z,8.76
2016-09-07T02:48:22.901Z,8.73
2016-09-07T02:49:22.877Z,8.98
2016-09-07T02:50:22.904Z,8.98
2016-09-07T02:51:22.887Z,8.96
2016-09-07T02:52:22.852Z,9.35
2016-09-07T02:53:22.870Z,9.45
2016-09-07T02:54:22.834Z,9.73
2016-09-07T02:55:22.832Z,9.99
2016-09-07T02:56:22.824Z,9.91
2016-09-07T02:57:22.825Z,9.73
2016-09-07T02:58:22.818Z,9.92
2016-09-07T02:59:22.807Z,9.83
2016-09-07T03:00:22.783Z,9.78
2016-09-07T03:01:22.780Z,9.6
2016-09-07T03:02:22.780Z,9.48
2016-09-07T03:03:22.754Z,9.53
2016-09-07T03:04:22.751Z,9.45
2016-09-07T03:05:23.067Z,9.37
2016-09-07T03:06:22.888Z,9.34
2016-09-07T03:07:22.731Z,9.31
2016-09-07T03:08:22.732Z,9.37
2016-09-07T03:09:22.726Z,9.3
2016-09-07T03:10:22.688Z,9.24
2016-09-07T03:11:22.678Z,9.19
2016-09-07T03:12:22.682Z,9.19
2016-09-07T03:13:22.668Z,9.2
2016-09-07T03:14:22.666Z,9.35
2016-09-07T03:15:22.656Z,9.37
2016-09-07T03:16:22.645Z,9.3
2016-09-07T03:17:22.638Z,9.27
2016-09-07T03:18:22.650Z,9.49
2016-09-07T03:19:22.628Z,9.27
2016-09-07T03:20:22.640Z,9.04
2016-09-07T03:21:22.617Z,9.04
2016-09-07T03:22:22.602Z,9.01
2016-09-07T03:23:22.581Z,8.88
2016-09-07T03:24:22.598Z,8.65
2016-09-07T03:25:22.582Z,8.75
2016-09-07T03:26:22.572Z,8.91
2016-09-07T03:27:22.557Z,8.98
2016-09-07T03:28:22.543Z,9.38
2016-09-07T03:29:22.518Z,9.4
2016-09-07T03:30:22.506Z,9.15
2016-09-07T03:31:22.501Z,9.26
2016-09-07T03:32:22.510Z,9.24
2016-09-07T03:33:22.497Z,9.3
2016-09-07T03:34:22.487Z,9.52
2016-09-07T03:35:22.471Z,9.32
2016-09-07T03:36:22.469Z,9.5
2016-09-07T03:37:22.480Z,9.38
2016-09-07T03:38:22.461Z,9.53
2016-09-07T03:39:22.446Z,9.71
2016-09-07T03:40:22.446Z,9.56
2016-09-07T03:41:22.421Z,9.19
2016-09-07T03:42:22.419Z,9.26
2016-09-07T03:43:22.396Z,9.24
2016-09-07T03:44:22.402Z,9.35
2016-09-07T03:45:22.388Z,9.37
2016-09-07T03:46:22.369Z,9.37
2016-09-07T03:47:22.387Z,9.58
2016-09-07T03:48:22.348Z,9.52
2016-09-07T03:49:22.336Z,9.52
2016-09-07T03:50:22.350Z,9.4
2016-09-07T03:51:22.332Z,9.32
2016-09-07T03:52:22.332Z,9.53
2016-09-07T03:53:22.328Z,9.63
2016-09-07T03:54:22.299Z,9.67
2016-09-07T03:55:22.322Z,9.44
2016-09-07T03:56:22.276Z,9.48
2016-09-07T03:57:22.301Z,9.68
2016-09-07T03:58:22.283Z,9.71
2016-09-07T03:59:22.274Z,9.74
2016-09-07T04:00:22.252Z,9.91
2016-09-07T04:01:22.243Z,9.98
2016-09-07T04:02:22.243Z,9.86
2016-09-07T04:03:22.221Z,9.88
2016-09-07T04:04:22.202Z,10.04
2016-09-07T04:05:22.229Z,9.99
2016-09-07T04:06:22.971Z,10.04
2016-09-07T04:07:22.198Z,9.96
2016-09-07T04:08:22.188Z,9.85
2016-09-07T04:09:22.182Z,9.68
2016-09-07T04:10:22.173Z,9.88
2016-09-07T04:11:22.141Z,9.96
2016-09-07T04:12:22.155Z,10.06
2016-09-07T04:13:22.145Z,10.35
2016-09-07T04:14:22.130Z,10.29
2016-09-07T04:15:22.150Z,10.17
2016-09-07T04:16:22.135Z,10.09
2016-09-07T04:17:22.119Z,10.06
2016-09-07T04:18:22.094Z,10.07
2016-09-07T04:19:22.092Z,10.02
2016-09-07T04:20:22.100Z,10.22
2016-09-07T04:21:22.077Z,10.17
2016-09-07T04:22:22.080Z,10.07
2016-09-07T04:23:22.076Z,9.95
2016-09-07T04:24:22.057Z,10.01
2016-09-07T04:25:22.063Z,9.99
2016-09-07T04:26:22.035Z,10.35
2016-09-07T04:27:22.028Z,10.22
2016-09-07T04:28:22.005Z,10.09
2016-09-07T04:29:22.016Z,10.02
2016-09-07T04:30:21.988Z,10.29
2016-09-07T04:31:21.992Z,10.22
2016-09-07T04:32:21.971Z,10.25
2016-09-07T04:33:21.960Z,10.46
2016-09-07T04:34:21.968Z,10.47
2016-09-07T04:35:21.959Z,10.22
2016-09-07T04:36:21.949Z,10.24
2016-09-07T04:37:21.923Z,10.04
2016-09-07T04:38:21.933Z,10.02
2016-09-07T04:39:21.918Z,10.02
2016-09-07T04:40:21.916Z,9.99
2016-09-07T04:41:21.909Z,10.25
2016-09-07T04:42:21.894Z,10.2
2016-09-07T04:43:21.905Z,10.02
2016-09-07T04:44:21.882Z,10.01
2016-09-07T04:45:21.868Z,9.99
2016-09-07T04:46:21.860Z,10.01
2016-09-07T04:47:21.851Z,10.14
2016-09-07T04:48:21.863Z,10.04
2016-09-07T04:49:21.828Z,10.02
2016-09-07T04:50:21.839Z,9.98
2016-09-07T04:51:21.826Z,9.98
2016-09-07T04:52:21.821Z,9.91
2016-09-07T04:53:21.802Z,9.89
2016-09-07T04:54:21.805Z,9.63
2016-09-07T04:55:21.799Z,9.86
2016-09-07T04:56:21.783Z,9.89
2016-09-07T04:57:21.771Z,9.8
2016-09-07T04:58:21.758Z,9.77
2016-09-07T04:59:21.757Z,9.85
2016-09-07T05:00:21.753Z,9.81
2016-09-07T05:01:21.734Z,9.71
2016-09-07T05:02:21.717Z,9.67
2016-09-07T05:03:21.716Z,9.62
2016-09-07T05:04:21.709Z,9.75
2016-09-07T05:05:21.697Z,9.73
2016-09-07T05:06:22.242Z,9.86
2016-09-07T05:07:21.683Z,10.14
2016-09-07T05:08:21.691Z,10.35
2016-09-07T05:09:21.653Z,10.35
2016-09-07T05:10:21.660Z,10.16
2016-09-07T05:11:21.636Z,10.18
2016-09-07T05:12:21.656Z,10.34
2016-09-07T05:13:21.639Z,10.24
2016-09-07T05:14:21.618Z,10.84
2016-09-07T05:15:21.615Z,10.9
2016-09-07T05:16:21.608Z,10.63
2016-09-07T05:17:21.610Z,10.35
2016-09-07T05:18:21.583Z,10.31
2016-09-07T05:19:21.560Z,10.52
2016-09-07T05:20:21.587Z,10.6
2016-09-07T05:21:21.573Z,10.76
2016-09-07T05:22:21.570Z,11.05
2016-09-07T05:23:21.561Z,11.09
2016-09-07T05:24:21.536Z,10.94
2016-09-07T05:25:21.534Z,11.23
2016-09-07T05:26:21.516Z,11.45
2016-09-07T05:27:21.508Z,11.53
2016-09-07T05:28:21.515Z,11.06
2016-09-07T05:29:21.502Z,11.23
2016-09-07T05:30:21.504Z,11.08
2016-09-07T05:31:21.478Z,11.23
2016-09-07T05:32:21.483Z,11.46
2016-09-07T05:33:21.469Z,11.57
2016-09-07T05:34:21.458Z,11.41
2016-09-07T05:35:21.445Z,11.13
2016-09-07T05:36:21.427Z,11.16
2016-09-07T05:37:21.416Z,11.27
2016-09-07T05:38:21.432Z,11.09
2016-09-07T05:39:21.431Z,11.08
2016-09-07T05:40:21.420Z,11.09
2016-09-07T05:41:21.402Z,11.09
2016-09-07T05:42:21.430Z,11.08
2016-09-07T05:43:21.382Z,10.93
2016-09-07T05:44:21.395Z,11.03
2016-09-07T05:45:21.363Z,10.99
2016-09-07T05:46:21.359Z,11.16
2016-09-07T05:47:21.339Z,11.27
2016-09-07T05:48:21.341Z,11.24
2016-09-07T05:49:21.329Z,11.12
2016-09-07T05:50:21.307Z,11.13
2016-09-07T05:51:21.308Z,11.41
2016-09-07T05:52:21.329Z,11.51
2016-09-07T05:53:21.314Z,11.39
2016-09-07T05:54:21.280Z,11.19
2016-09-07T05:55:21.300Z,10.99
2016-09-07T05:56:21.281Z,11.31
2016-09-07T05:57:21.274Z,11.13
2016-09-07T05:58:21.253Z,10.94
2016-09-07T05:59:21.253Z,11.26
2016-09-07T06:00:21.251Z,11.54
2016-09-07T06:01:21.246Z,11.44
2016-09-07T06:02:21.236Z,11.28
2016-09-07T06:03:21.227Z,11.49
2016-09-07T06:04:21.223Z,11.41
2016-09-07T06:05:21.209Z,11.44
2016-09-07T06:06:21.199Z,11.35
2016-09-07T06:07:21.182Z,11.54
2016-09-07T06:08:21.168Z,11.72
2016-09-07T06:09:21.168Z,11.88
2016-09-07T06:10:21.177Z,11.85
2016-09-07T06:11:21.159Z,11.75
2016-09-07T06:12:21.168Z,11.62
2016-09-07T06:13:21.138Z,11.57
2016-09-07T06:14:21.142Z,11.59
2016-09-07T06:15:21.133Z,11.75
2016-09-07T06:16:21.118Z,11.82
2016-09-07T06:17:21.099Z,11.98
2016-09-07T06:18:21.100Z,11.82
2016-09-07T06:19:21.123Z,11.96
2016-09-07T06:20:21.083Z,12.16
2016-09-07T06:21:21.101Z,12.3
2016-09-07T06:22:21.072Z,12.38
2016-09-07T06:23:21.070Z,12.44
2016-09-07T06:24:21.070Z,12.54
2016-09-07T06:25:21.043Z,12.67
2016-09-07T06:26:21.028Z,12.62
2016-09-07T06:27:21.026Z,12.61
2016-09-07T06:28:21.040Z,12.73
2016-09-07T06:29:21.039Z,12.84
2016-09-07T06:30:21.004Z,12.67
2016-09-07T06:31:21.008Z,12.55
2016-09-07T06:32:21.009Z,12.4
2016-09-07T06:33:20.996Z,12.55
2016-09-07T06:34:20.994Z,12.51
2016-09-07T06:35:20.969Z,12.51
2016-09-07T06:36:20.975Z,12.43
2016-09-07T06:37:20.945Z,12.76
2016-09-07T06:38:20.958Z,13.01
2016-09-07T06:39:20.955Z,13.31
2016-09-07T06:40:20.933Z,12.96
2016-09-07T06:41:20.947Z,12.94
2016-09-07T06:42:20.914Z,13.04
2016-09-07T06:43:20.920Z,12.99
2016-09-07T06:44:20.916Z,12.76
2016-09-07T06:45:20.911Z,12.76
2016-09-07T06:46:20.893Z,12.76
2016-09-07T06:47:20.914Z,12.89
2016-09-07T06:48:20.901Z,13.06
2016-09-07T06:49:20.878Z,12.73
2016-09-07T06:50:20.866Z,13.17
2016-09-07T06:51:20.854Z,13.12
2016-09-07T06:52:20.877Z,13.16
2016-09-07T06:53:20.874Z,13.36
2016-09-07T06:54:20.844Z,13.65
2016-09-07T06:55:20.831Z,13.68
2016-09-07T06:56:20.841Z,13.54
2016-09-07T06:57:20.834Z,13.69
2016-09-07T06:58:20.834Z,13.54
2016-09-07T06:59:21.122Z,13.41
2016-09-07T07:00:20.814Z,12.69
2016-09-07T07:01:20.795Z,12.7
2016-09-07T07:02:20.801Z,12.95
2016-09-07T07:03:20.804Z,13.06
2016-09-07T07:04:20.790Z,13.09
2016-09-07T07:05:20.789Z,13.32
2016-09-07T07:06:20.758Z,13.24
2016-09-07T07:07:20.776Z,13.43
2016-09-07T07:08:20.765Z,13.46
2016-09-07T07:09:20.752Z,13.62
2016-09-07T07:10:20.762Z,13.98
2016-09-07T07:11:20.748Z,14.26
2016-09-07T07:12:20.754Z,14.27
2016-09-07T07:13:20.714Z,14.35
2016-09-07T07:14:20.726Z,14.67
2016-09-07T07:15:20.725Z,14.74
2016-09-07T07:16:20.718Z,14.85
2016-09-07T07:17:20.724Z,15.09
2016-09-07T07:18:20.708Z,14.09
2016-09-07T07:19:20.701Z,13.35
2016-09-07T07:20:20.674Z,13.32
2016-09-07T07:21:20.687Z,13.57
2016-09-07T07:22:20.688Z,13.87
2016-09-07T07:23:20.682Z,13.54
2016-09-07T07:24:20.659Z,13.51
2016-09-07T07:25:20.666Z,13.68
2016-09-07T07:26:20.661Z,14.05
2016-09-07T07:27:20.660Z,13.75
2016-09-07T07:28:20.660Z,13.84
2016-09-07T07:29:20.625Z,13.44
2016-09-07T07:30:20.656Z,13.24
2016-09-07T07:31:20.638Z,13.39
2016-09-07T07:32:20.625Z,13.32
2016-09-07T07:33:20.620Z,13.39
2016-09-07T07:34:20.621Z,13.32
2016-09-07T07:35:20.611Z,13.27
2016-09-07T07:36:20.892Z,12.85
2016-09-07T07:37:20.612Z,12.77
2016-09-07T07:38:20.604Z,12.94
2016-09-07T07:39:20.571Z,12.95
2016-09-07T07:40:20.560Z,13.1
2016-09-07T07:41:20.591Z,13.44
2016-09-07T07:42:20.561Z,13.54
2016-09-07T07:43:20.562Z,13.48
2016-09-07T07:44:20.529Z,13.22
2016-09-07T07:45:20.538Z,13.94
2016-09-07T07:46:20.522Z,14.01
2016-09-07T07:47:20.523Z,14.08
2016-09-07T07:48:20.522Z,14.13
2016-09-07T07:49:20.511Z,14.35
2016-09-07T07:50:20.531Z,14.09
2016-09-07T07:51:20.490Z,14.02
2016-09-07T07:52:20.498Z,14.41
2016-09-07T07:53:20.497Z,13.72
2016-09-07T07:54:20.493Z,13.29
2016-09-07T07:55:20.488Z,13.21
2016-09-07T07:56:20.480Z,13.76
2016-09-07T07:57:20.753Z,14.17
2016-09-07T07:58:20.476Z,14.57
2016-09-07T07:59:20.781Z,14.61
2016-09-07T08:00:20.437Z,14.42
2016-09-07T08:01:20.432Z,13.71
2016-09-07T08:02:20.435Z,13.32
2016-09-07T08:03:20.443Z,14.12
2016-09-07T08:04:20.451Z,14.48
2016-09-07T08:05:20.437Z,14.69
2016-09-07T08:06:20.703Z,14.53
2016-09-07T08:07:20.563Z,14.74
2016-09-07T08:08:20.413Z,15.52
2016-09-07T08:09:20.413Z,15.78
2016-09-07T08:10:20.409Z,16.11
2016-09-07T08:11:20.405Z,15.92
2016-09-07T08:12:20.383Z,16.18
2016-09-07T08:13:20.395Z,16.9
2016-09-07T08:14:20.376Z,16.73
2016-09-07T08:15:20.388Z,16.23
2016-09-07T08:16:20.375Z,16.73
2016-09-07T08:17:20.362Z,15.76
2016-09-07T08:18:20.360Z,14.34
2016-09-07T08:19:20.372Z,13.96
2016-09-07T08:20:20.364Z,14.44
2016-09-07T08:21:20.367Z,14.23
2016-09-07T08:22:20.350Z,14.01
2016-09-07T08:23:20.342Z,14.56
2016-09-07T08:24:20.343Z,15.03
2016-09-07T08:25:20.326Z,15.7
2016-09-07T08:26:20.337Z,16.41
2016-09-07T08:27:20.318Z,16.55
2016-09-07T08:28:20.320Z,16.67
2016-09-07T08:29:20.295Z,17.06
2016-09-07T08:30:20.291Z,17.3
2016-09-07T08:31:20.594Z,17.35
2016-09-07T08:32:20.292Z,16.77
2016-09-07T08:33:20.305Z,17.17
2016-09-07T08:34:20.283Z,17.7
2016-09-07T08:35:20.305Z,18.09
2016-09-07T08:36:20.283Z,18.11
2016-09-07T08:37:20.285Z,17.53
2016-09-07T08:38:20.280Z,16.7
2016-09-07T08:39:20.277Z,16.73
2016-09-07T08:40:20.289Z,17.35
2016-09-07T08:41:20.282Z,17.73
2016-09-07T08:42:20.254Z,18.14
2016-09-07T08:43:20.277Z,18.2
2016-09-07T08:44:20.261Z,18.11
2016-09-07T08:45:20.235Z,18.2
2016-09-07T08:46:20.262Z,18.25
2016-09-07T08:47:20.263Z,18.39
2016-09-07T08:48:20.249Z,18.91
2016-09-07T08:49:20.232Z,19.42
2016-09-07T08:50:20.234Z,19.34
2016-09-07T08:51:20.249Z,19.2
2016-09-07T08:52:20.214Z,19.07
2016-09-07T08:53:20.536Z,18.75
2016-09-07T08:54:20.225Z,18.46
2016-09-07T08:55:20.249Z,18.36
2016-09-07T08:56:20.228Z,18.79
2016-09-07T08:57:20.225Z,19.15
2016-09-07T08:58:20.234Z,19.35
2016-09-07T08:59:20.235Z,19.06
2016-09-07T09:00:20.219Z,18.17
2016-09-07T09:01:20.206Z,16.54
2016-09-07T09:02:20.208Z,16.95
2016-09-07T09:03:20.209Z,17.47
2016-09-07T09:04:20.198Z,17.89
2016-09-07T09:05:20.213Z,18.01
2016-09-07T09:06:20.183Z,18.19
2016-09-07T09:07:20.202Z,18.41
2016-09-07T09:08:20.190Z,18.9
2016-09-07T09:09:20.204Z,19.01
2016-09-07T09:10:20.201Z,19.2
2016-09-07T09:11:20.181Z,19.35
2016-09-07T09:12:20.202Z,19.61
2016-09-07T09:13:20.186Z,19.97
2016-09-07T09:14:20.169Z,19.53
2016-09-07T09:15:20.172Z,18.89
2016-09-07T09:16:20.172Z,19.06
2016-09-07T09:17:20.162Z,18.93
2016-09-07T09:18:20.188Z,18.86
2016-09-07T09:19:20.171Z,19.02
2016-09-07T09:20:20.184Z,18.82
2016-09-07T09:21:20.159Z,18.75
2016-09-07T09:22:20.144Z,18.83
2016-09-07T09:23:20.156Z,19.06
2016-09-07T09:24:20.158Z,19.05
2016-09-07T09:25:20.146Z,18.86
2016-09-07T09:26:20.161Z,19.1
2016-09-07T09:27:20.146Z,19.24
2016-09-07T09:28:20.162Z,19.53
2016-09-07T09:29:20.145Z,19.76
2016-09-07T09:30:20.145Z,20.01
2016-09-07T09:31:20.146Z,20.07
2016-09-07T09:32:20.154Z,19.76
2016-09-07T09:33:20.121Z,19.35
2016-09-07T09:34:20.142Z,19.3
2016-09-07T09:35:20.146Z,19.35
2016-09-07T09:36:20.123Z,19.53
2016-09-07T09:37:20.431Z,19.43
2016-09-07T09:38:20.121Z,19.79
2016-09-07T09:39:20.126Z,20.01
2016-09-07T09:40:20.120Z,20.3
2016-09-07T09:41:20.121Z,20.08
2016-09-07T09:42:20.115Z,19.6
2016-09-07T09:43:20.111Z,19.43
2016-09-07T09:44:20.122Z,19.55
2016-09-07T09:45:20.112Z,19.76
2016-09-07T09:46:20.094Z,19.78
2016-09-07T09:47:20.114Z,19.92
2016-09-07T09:48:20.106Z,19.97
2016-09-07T09:49:20.101Z,19.85
2016-09-07T09:50:20.083Z,19.8
2016-09-07T09:51:20.091Z,19.6
2016-09-07T09:52:20.100Z,19.95
2016-09-07T09:53:20.106Z,19.95
2016-09-07T09:54:20.081Z,19.28
2016-09-07T09:55:20.099Z,19.27
2016-09-07T09:56:20.098Z,19.4
2016-09-07T09:57:20.091Z,19.38
2016-09-07T09:58:20.092Z,19.17
2016-09-07T09:59:20.073Z,19.23
2016-09-07T10:00:20.094Z,19.5
2016-09-07T10:01:20.074Z,19.61
2016-09-07T10:02:20.077Z,19.55
2016-09-07T10:03:20.070Z,19.62
2016-09-07T10:04:20.080Z,19.15
2016-09-07T10:05:20.069Z,19.42
2016-09-07T10:06:20.064Z,19.62
2016-09-07T10:07:20.239Z,19.82
2016-09-07T10:08:20.081Z,19.75
2016-09-07T10:09:20.061Z,20.02
2016-09-07T10:10:20.092Z,20.31
2016-09-07T10:11:20.064Z,20.15
2016-09-07T10:12:20.054Z,19.85
2016-09-07T10:13:20.038Z,19.53
2016-09-07T10:14:20.064Z,19.28
2016-09-07T10:15:20.040Z,19.23
2016-09-07T10:16:20.031Z,19.13
2016-09-07T10:17:20.045Z,18.94
2016-09-07T10:18:20.029Z,19.02
2016-09-07T10:19:20.032Z,19.2
2016-09-07T10:20:20.041Z,19.38
2016-09-07T10:21:20.056Z,19.25
2016-09-07T10:22:20.037Z,19.42
2016-09-07T10:23:20.323Z,19.27
2016-09-07T10:24:20.019Z,19.1
2016-09-07T10:25:20.036Z,18.96
2016-09-07T10:26:20.048Z,18.96
2016-09-07T10:27:20.007Z,19.32
2016-09-07T10:28:20.035Z,19.47
2016-09-07T10:29:20.017Z,19.94
2016-09-07T10:30:20.021Z,19.98
2016-09-07T10:31:20.005Z,19.92
2016-09-07T10:32:20.019Z,19.61
2016-09-07T10:33:20.023Z,19.76
2016-09-07T10:34:19.992Z,19.62
2016-09-07T10:35:20.017Z,19.52
2016-09-07T10:36:20.001Z,19.78
2016-09-07T10:37:20.008Z,19.79
2016-09-07T10:38:20.003Z,19.72
2016-09-07T10:39:20.001Z,19.98
2016-09-07T10:40:19.995Z,20.05
2016-09-07T10:41:19.992Z,20.02
2016-09-07T10:42:19.982Z,20.02
2016-09-07T10:43:19.996Z,19.83
2016-09-07T10:44:19.973Z,20.01
2016-09-07T10:45:19.969Z,19.76
2016-09-07T10:46:19.997Z,19.86
2016-09-07T10:47:19.974Z,20.01
2016-09-07T10:48:19.989Z,20.1
2016-09-07T10:49:19.985Z,20
2016-09-07T10:50:19.988Z,19.71
2016-09-07T10:51:19.968Z,19.61
2016-09-07T10:52:19.993Z,19.43
2016-09-07T10:53:19.992Z,19.32
2016-09-07T10:54:19.982Z,19.23
2016-09-07T10:55:19.954Z,18.87
2016-09-07T10:56:19.964Z,19.13
2016-09-07T10:57:19.979Z,19.27
2016-09-07T10:58:19.950Z,19.21
2016-09-07T10:59:19.976Z,19.4
2016-09-07T11:00:19.984Z,19.5
2016-09-07T11:01:19.962Z,19.5
2016-09-07T11:02:19.961Z,19.46
2016-09-07T11:03:19.936Z,19.62
2016-09-07T11:04:19.971Z,19.42
2016-09-07T11:05:19.934Z,19.12
2016-09-07T11:06:19.956Z,19.07
2016-09-07T11:07:19.945Z,18.72
2016-09-07T11:08:19.928Z,18.66
2016-09-07T11:09:19.954Z,18.36
2016-09-07T11:10:19.946Z,18.01
2016-09-07T11:11:20.234Z,18.14
2016-09-07T11:12:19.947Z,18.31
2016-09-07T11:13:19.938Z,18.47
2016-09-07T11:14:19.916Z,18.42
2016-09-07T11:15:19.919Z,18.13
2016-09-07T11:16:19.934Z,17.87
2016-09-07T11:17:19.913Z,17.76
2016-09-07T11:18:19.929Z,17.77
2016-09-07T11:19:19.932Z,17.99
2016-09-07T11:20:19.919Z,17.8
2016-09-07T11:21:19.908Z,17.74
2016-09-07T11:22:19.912Z,17.87
2016-09-07T11:23:19.915Z,17.99
2016-09-07T11:24:19.917Z,17.89
2016-09-07T11:25:19.905Z,17.7
2016-09-07T11:26:19.882Z,17.68
2016-09-07T11:27:19.893Z,17.53
2016-09-07T11:28:19.897Z,17.46
2016-09-07T11:29:19.906Z,17.33
2016-09-07T11:30:19.865Z,17.38
2016-09-07T11:31:19.863Z,17.36
2016-09-07T11:32:19.901Z,17.17
2016-09-07T11:33:19.868Z,17.18
2016-09-07T11:34:19.864Z,17.4
2016-09-07T11:35:19.863Z,17.65
2016-09-07T11:36:19.864Z,17.77
2016-09-07T11:37:19.869Z,17.53
2016-09-07T11:38:19.864Z,17.36
2016-09-07T11:39:19.869Z,17.35
2016-09-07T11:40:19.845Z,17.32
2016-09-07T11:41:19.836Z,17.33
2016-09-07T11:42:19.845Z,17.45
2016-09-07T11:43:19.856Z,17.81
2016-09-07T11:44:19.817Z,17.76
2016-09-07T11:45:19.815Z,17.63
2016-09-07T11:46:19.846Z,17.55
2016-09-07T11:47:19.807Z,17.77
2016-09-07T11:48:19.821Z,17.81
2016-09-07T11:49:19.806Z,18.02
2016-09-07T11:50:19.809Z,18.02
2016-09-07T11:51:19.795Z,17.87
2016-09-07T11:52:19.818Z,17.73
2016-09-07T11:53:19.814Z,17.58
2016-09-07T11:54:19.786Z,17.58
2016-09-07T11:55:19.801Z,17.8
2016-09-07T11:56:19.802Z,18.02
2016-09-07T11:57:19.798Z,18.11
2016-09-07T11:58:19.808Z,17.77
2016-09-07T11:59:19.788Z,18.11
2016-09-07T12:00:19.791Z,18.34
2016-09-07T12:01:19.788Z,18.11
2016-09-07T12:02:19.769Z,18.41
2016-09-07T12:03:19.775Z,18.39
2016-09-07T12:04:19.777Z,18.53
2016-09-07T12:05:20.102Z,18.49
2016-09-07T12:06:19.765Z,18.51
2016-09-07T12:07:19.777Z,18.49
2016-09-07T12:08:19.777Z,18.57
2016-09-07T12:09:19.760Z,18.46
2016-09-07T12:10:19.753Z,18.44
2016-09-07T12:11:19.757Z,18.62
2016-09-07T12:12:19.756Z,18.79
2016-09-07T12:13:19.754Z,19.16
2016-09-07T12:14:19.737Z,19.47
2016-09-07T12:15:19.737Z,19.34
2016-09-07T12:16:19.727Z,19.17
2016-09-07T12:17:19.747Z,19.02
2016-09-07T12:18:19.723Z,18.75
2016-09-07T12:19:19.733Z,18.84
2016-09-07T12:20:19.725Z,18.59
2016-09-07T12:21:19.741Z,18.39
2016-09-07T12:22:19.734Z,18.26
2016-09-07T12:23:19.725Z,18.17
2016-09-07T12:24:19.697Z,18.07
2016-09-07T12:25:19.712Z,17.94
2016-09-07T12:26:19.717Z,17.79
2016-09-07T12:27:19.714Z,17.95
2016-09-07T12:28:19.695Z,18.02
2016-09-07T12:29:19.709Z,18.07
2016-09-07T12:30:19.716Z,18.41
2016-09-07T12:31:19.714Z,18.1
2016-09-07T12:32:19.675Z,17.79
2016-09-07T12:33:19.680Z,17.45
2016-09-07T12:34:19.680Z,17.42
2016-09-07T12:35:19.679Z,17.49
2016-09-07T12:36:19.691Z,17.43
2016-09-07T12:37:19.691Z,17.32
2016-09-07T12:38:19.679Z,17.49
2016-09-07T12:39:19.667Z,17.98
2016-09-07T12:40:19.669Z,17.84
2016-09-07T12:41:19.647Z,17.86
2016-09-07T12:42:19.648Z,17.68
2016-09-07T12:43:19.645Z,17.6
2016-09-07T12:44:19.653Z,17.39
2016-09-07T12:45:19.631Z,17.54
2016-09-07T12:46:19.652Z,17.33
2016-09-07T12:47:19.648Z,17.35
2016-09-07T12:48:19.639Z,17.4
2016-09-07T12:49:19.634Z,17.39
2016-09-07T12:50:19.632Z,17.6
2016-09-07T12:51:19.644Z,17.32
2016-09-07T12:52:19.619Z,17.49
2016-09-07T12:53:19.629Z,17.54
2016-09-07T12:54:19.611Z,17.76
2016-09-07T12:55:19.615Z,17.73
2016-09-07T12:56:19.593Z,17.65
2016-09-07T12:57:19.607Z,17.45
2016-09-07T12:58:19.620Z,17.55
2016-09-07T12:59:19.600Z,17.66
2016-09-07T13:00:19.592Z,17.43
2016-09-07T13:01:19.590Z,17.36
2016-09-07T13:02:19.596Z,17.53
2016-09-07T13:03:19.600Z,17.42